Time;durP1;ratioP1;P1;durP2;ratioP2;P2;SDS_P1;SDS_P2;PMS_P1;PMS_P2;Temp;Humidity;BMP_temperature;BMP_pressure;BME280_temperature;BME280_humidity;BME280_pressure;Samples;Min_cycle;Max_cycle;Signal;HPM_P1;HPM_P2
2022/10/03 00:02:01;;;;;;;0.00;0.00;;;17.80;99.90;;;18.29;56.29;102091.88;4907957;28;103178;-57
2022/10/03 00:04:51;;;;;;;0.37;0.20;;;17.70;99.90;;;18.26;56.28;102096.47;4905382;28;97677;-57
2022/10/03 00:07:29;;;;;;;0.73;0.10;;;17.70;99.90;;;18.26;56.66;102107.16;4907241;28;97252;-54
2022/10/03 00:10:04;;;;;;;0.00;0.00;;;17.60;99.90;;;18.25;56.45;102108.09;4917334;28;97804;-54
2022/10/03 00:12:50;;;;;;;0.00;0.00;;;17.70;99.90;;;18.25;56.49;102111.63;4922404;28;97490;-57
2022/10/03 00:15:29;;;;;;;0.07;0.00;;;17.70;99.90;;;18.28;56.28;102110.63;4920263;28;98345;-56
2022/10/03 00:17:58;;;;;;;0.60;0.20;;;17.70;99.90;;;18.29;56.20;102112.38;4928997;28;97660;-57
2022/10/03 00:20:52;;;;;;;1.23;0.30;;;17.80;99.90;;;18.29;56.32;102115.03;4924467;28;97595;-52
2022/10/03 00:23:40;;;;;;;0.20;0.20;;;17.80;99.90;;;18.28;56.19;102124.84;4920228;28;101706;-53
2022/10/03 00:26:37;;;;;;;0.20;0.10;;;17.70;99.90;;;18.26;56.18;102123.19;4918637;28;97671;-53
2022/10/03 00:29:29;;;;;;;0.10;0.10;;;17.60;99.90;;;18.20;56.26;102135.00;4914425;28;97588;-55
2022/10/03 00:32:13;;;;;;;1.80;0.40;;;17.50;99.90;;;18.17;56.25;102128.94;4916383;28;97727;-52
2022/10/03 00:35:00;;;;;;;0.00;0.00;;;17.50;99.90;;;18.14;56.05;102127.25;4916379;28;98227;-57
2022/10/03 00:37:36;;;;;;;0.20;0.10;;;17.50;99.90;;;18.12;56.75;102131.81;4919823;28;97426;-52
2022/10/03 00:40:45;;;;;;;0.10;0.00;;;17.50;99.90;;;18.14;56.47;102130.81;4910249;28;97297;-57
2022/10/03 00:43:42;;;;;;;0.10;0.10;;;17.50;99.90;;;18.14;56.57;102128.13;4919434;28;101708;-57
2022/10/03 00:46:17;;;;;;;0.10;0.10;;;17.60;99.90;;;18.17;56.60;102123.59;4913867;28;101116;-51
2022/10/03 00:49:07;;;;;;;0.10;0.10;;;17.60;99.90;;;18.22;56.49;102124.25;4917006;28;97631;-55
2022/10/03 00:52:19;;;;;;;0.10;0.10;;;17.70;99.90;;;18.24;55.98;102135.75;4921676;28;97172;-55
2022/10/03 00:55:31;;;;;;;0.10;0.10;;;17.70;99.90;;;18.21;56.09;102135.84;4915009;28;101832;-57
2022/10/03 00:58:38;;;;;;;0.10;0.10;;;17.70;99.90;;;18.17;55.92;102139.59;4916583;28;98343;-55
2022/10/03 01:01:27;;;;;;;1.33;0.30;;;17.60;99.90;;;18.06;56.76;102143.59;4904356;28;100198;-53
2022/10/03 01:04:31;;;;;;;0.77;0.20;;;17.40;99.90;;;18.10;56.70;102145.22;4911514;28;98715;-51
2022/10/03 01:07:25;;;;;;;0.03;0.03;;;17.50;99.90;;;18.09;56.63;102154.19;4918524;28;97532;-55
2022/10/03 01:10:10;;;;;;;0.10;0.10;;;17.50;99.90;;;18.09;56.65;102148.84;4912717;28;97812;-57
2022/10/03 01:12:54;;;;;;;0.10;0.10;;;17.50;99.90;;;18.10;56.65;102158.59;4913591;28;97447;-50
2022/10/03 01:15:39;;;;;;;0.10;0.10;;;17.50;99.90;;;18.14;56.53;102161.97;4919406;28;98618;-57
2022/10/03 01:18:13;;;;;;;0.17;0.17;;;17.60;99.90;;;18.14;56.22;102151.31;4919971;28;103157;-51
2022/10/03 01:21:00;;;;;;;2.00;0.30;;;17.60;99.90;;;18.13;56.30;102153.09;4916937;28;97142;-54
2022/10/03 01:24:07;;;;;;;0.20;0.20;;;17.50;99.90;;;18.19;56.11;102143.94;4920958;28;97914;-52
2022/10/03 01:26:52;;;;;;;0.20;0.20;;;17.70;99.90;;;18.26;55.99;102144.56;4910811;28;97618;-55
2022/10/03 01:32:36;;;;;;;0.37;0.27;;;17.80;99.90;;;18.24;55.92;102146.44;4933553;28;101528;-55
2022/10/03 01:35:43;;;;;;;0.37;0.20;;;17.70;99.90;;;18.20;55.99;102150.16;4931749;28;98090;-52
2022/10/03 01:38:35;;;;;;;0.23;0.20;;;17.60;99.90;;;18.13;56.11;102149.56;4931539;28;97285;-53
2022/10/03 01:41:19;;;;;;;0.10;0.10;;;17.50;99.90;;;18.09;56.30;102159.53;4929011;28;101728;-53
2022/10/03 01:44:00;;;;;;;0.27;0.20;;;17.40;99.90;;;18.13;56.39;102145.09;4931543;28;98239;-56
2022/10/03 01:46:46;;;;;;;0.50;0.20;;;17.60;99.90;;;18.18;56.20;102154.69;4919329;28;97500;-53
2022/10/03 01:50:07;;;;;;;0.20;0.20;;;17.60;99.90;;;18.17;56.21;102150.28;4916314;28;97699;-53
2022/10/03 01:52:57;;;;;;;0.10;0.03;;;17.60;99.90;;;18.17;55.86;102151.16;4904644;28;102782;-54
2022/10/03 01:55:46;;;;;;;0.23;0.20;;;17.60;99.90;;;18.09;56.24;102154.19;4910197;28;101326;-54
2022/10/03 01:58:59;;;;;;;0.50;0.13;;;17.50;99.90;;;18.08;56.25;102157.78;4910273;28;97476;-56
2022/10/03 02:01:39;;;;;;;0.40;0.23;;;17.40;99.90;;;18.07;56.23;102161.38;4915745;28;97897;-56
2022/10/03 02:04:22;;;;;;;0.20;0.20;;;17.40;99.90;;;18.03;56.26;102164.25;4913949;28;102575;-55
2022/10/03 02:07:09;;;;;;;0.20;0.20;;;17.40;99.90;;;17.97;56.67;102178.72;4921850;28;97788;-54
2022/10/03 02:10:03;;;;;;;0.20;0.20;;;17.20;99.90;;;18.02;56.57;102179.41;4925225;28;97675;-56
2022/10/03 02:12:38;;;;;;;0.40;0.37;;;17.40;99.90;;;18.02;56.29;102179.41;4917855;28;101130;-53
2022/10/03 02:15:20;;;;;;;0.20;0.10;;;17.30;99.90;;;17.98;56.44;102180.47;4901279;28;101887;-55
2022/10/03 02:18:47;;;;;;;0.20;0.20;;;17.30;99.90;;;17.96;56.59;102186.81;4923714;28;98552;-54
2022/10/03 02:21:28;;;;;;;0.20;0.10;;;17.20;99.90;;;17.97;56.66;102192.09;4907959;28;97517;-53
2022/10/03 02:24:18;;;;;;;0.47;0.30;;;17.30;99.90;;;18.03;56.61;102197.16;4916585;28;103840;-54
2022/10/03 02:27:41;;;;;;;0.20;0.20;;;17.40;99.90;;;18.08;56.40;102195.19;4916977;28;98592;-52
2022/10/03 02:30:37;;;;;;;0.43;0.20;;;17.50;99.90;;;18.11;56.29;102189.69;4917412;28;102016;-53
2022/10/03 02:33:53;;;;;;;0.27;0.20;;;17.70;99.90;;;18.12;56.19;102172.72;4897394;28;98303;-54
2022/10/03 02:36:55;;;;;;;0.60;0.20;;;17.60;99.90;;;18.10;56.22;102179.94;4916263;28;97771;-52
2022/10/03 02:39:37;;;;;;;0.40;0.30;;;17.60;99.90;;;18.06;56.34;102181.00;4913909;28;101678;-53
2022/10/03 02:42:26;;;;;;;0.57;0.20;;;17.50;99.90;;;18.05;56.40;102184.59;4914164;28;100742;-55
2022/10/03 02:45:34;;;;;;;0.30;0.20;;;17.50;99.90;;;18.02;56.42;102182.06;4912684;28;98520;-50
2022/10/03 02:48:46;;;;;;;0.33;0.23;;;17.40;99.90;;;17.99;56.68;102186.69;4919263;28;97496;-57
2022/10/03 02:51:47;;;;;;;0.10;0.10;;;17.30;99.90;;;18.03;56.58;102189.13;4931223;28;102768;-56
2022/10/03 02:54:32;;;;;;;0.73;0.30;;;17.40;99.90;;;18.01;56.18;102188.34;4891839;28;101308;-53
2022/10/03 02:57:16;;;;;;;0.10;0.10;;;17.40;99.90;;;18.01;56.60;102193.69;4919102;28;97688;-53
2022/10/03 03:00:04;;;;;;;0.20;0.20;;;17.40;99.90;;;18.03;56.22;102196.28;4918112;28;97966;-56
2022/10/03 03:03:10;;;;;;;0.00;0.00;;;17.40;99.90;;;17.96;56.25;102190.34;4940517;28;98326;-56
2022/10/03 03:05:55;;;;;;;0.20;0.20;;;17.30;99.90;;;17.95;56.73;102193.09;4933492;28;101356;-54
2022/10/03 03:09:07;;;;;;;0.40;0.40;;;17.30;99.90;;;17.96;56.51;102195.69;4937668;28;97290;-56
2022/10/03 03:11:46;;;;;;;0.10;0.10;;;17.30;99.90;;;18.00;56.32;102199.97;4943550;28;97440;-56
2022/10/03 03:14:42;;;;;;;0.40;0.33;;;17.40;99.90;;;18.01;56.24;102203.50;4923693;28;100679;-57
2022/10/03 03:17:16;;;;;;;0.57;0.20;;;17.40;99.90;;;17.98;56.55;102204.50;4925464;28;101347;-58
2022/10/03 03:20:10;;;;;;;0.50;0.20;;;17.30;99.90;;;18.00;56.55;102204.44;4925264;28;97597;-57
2022/10/03 03:23:28;;;;;;;0.10;0.03;;;17.40;99.90;;;18.01;56.52;102208.84;4915251;28;98127;-55
2022/10/03 03:26:21;;;;;;;0.43;0.20;;;17.40;99.90;;;18.01;56.22;102214.16;4921118;28;103572;-52
2022/10/03 03:29:18;;;;;;;0.83;0.50;;;17.40;99.90;;;18.00;55.89;102213.31;4922740;28;98226;-56
2022/10/03 03:31:49;;;;;;;1.73;0.20;;;17.40;99.90;;;17.89;56.46;102215.56;4920177;28;102722;-56
2022/10/03 03:34:19;;;;;;;0.30;0.30;;;17.10;99.90;;;17.82;56.43;102224.75;4925318;28;97643;-55
2022/10/03 03:36:47;;;;;;;0.17;0.10;;;17.00;99.90;;;17.78;56.72;102218.66;4936585;28;98697;-52
2022/10/03 03:39:49;;;;;;;0.73;0.40;;;16.90;99.90;;;17.69;56.50;102218.19;4926393;28;97728;-52
2022/10/03 03:42:29;;;;;;;0.40;0.10;;;16.80;99.90;;;17.67;57.21;102215.53;4937566;28;97647;-55
2022/10/03 03:45:32;;;;;;;0.20;0.20;;;16.80;99.90;;;17.70;57.10;102217.25;4935374;28;97993;-53
2022/10/03 03:48:24;;;;;;;0.10;0.10;;;16.90;99.90;;;17.74;57.25;102221.53;4907961;28;99919;-55
2022/10/03 03:51:22;;;;;;;0.20;0.20;;;17.00;99.90;;;17.82;57.03;102225.63;4922098;28;97940;-56
2022/10/03 03:54:23;;;;;;;0.10;0.10;;;17.10;99.90;;;18.00;56.22;102223.13;4920191;28;99197;-51
2022/10/03 03:57:36;;;;;;;0.10;0.10;;;17.50;99.90;;;18.02;56.15;102221.25;4922322;28;99004;-55
2022/10/03 04:00:20;;;;;;;0.13;0.10;;;17.50;99.90;;;18.07;56.08;102224.59;4914668;28;100498;-56
2022/10/03 04:03:01;;;;;;;0.13;0.10;;;17.60;99.90;;;18.13;55.72;102222.53;4913132;28;97295;-49
2022/10/03 04:06:02;;;;;;;0.20;0.17;;;17.70;99.90;;;18.21;55.67;102221.31;4915967;28;97240;-53
2022/10/03 04:08:43;;;;;;;0.57;0.20;;;17.80;99.90;;;18.27;55.34;102218.41;4908546;28;97731;-53
2022/10/03 04:12:28;;;;;;;0.20;0.10;;;17.90;99.90;;;18.29;55.21;102219.22;4913255;28;100713;-56
2022/10/03 04:15:34;;;;;;;0.40;0.20;;;17.90;99.90;;;18.22;55.02;102223.06;4853778;28;100809;-56
2022/10/03 04:18:59;;;;;;;0.83;0.40;;;17.70;99.90;;;18.13;55.61;102225.22;4872191;28;97920;-57
2022/10/03 04:21:28;;;;;;;0.70;0.10;;;17.50;99.90;;;18.14;55.58;102226.06;4884675;28;97292;-54
2022/10/03 04:24:19;;;;;;;0.10;0.10;;;17.70;99.90;;;18.04;55.43;102236.25;4912446;28;98979;-52
2022/10/03 04:27:16;;;;;;;0.93;0.50;;;17.40;99.90;;;18.04;55.61;102238.94;4926885;28;98179;-51
2022/10/03 04:29:50;;;;;;;0.60;0.23;;;17.40;99.90;;;17.99;55.81;102240.06;4928325;28;98024;-49
2022/10/03 04:32:40;;;;;;;0.50;0.20;;;17.30;99.90;;;17.98;56.09;102241.88;4936923;28;97629;-54
2022/10/03 04:35:43;;;;;;;0.67;0.40;;;17.30;99.90;;;17.93;56.19;102241.19;4945681;28;101929;-51
2022/10/03 04:38:33;;;;;;;0.40;0.40;;;17.30;99.90;;;17.93;55.90;102243.84;4911718;28;100089;-54
2022/10/03 04:41:35;;;;;;;0.10;0.00;;;17.30;99.90;;;17.88;56.10;102236.97;4912463;28;97473;-52
2022/10/03 04:44:42;;;;;;;0.17;0.10;;;17.20;99.90;;;17.79;56.01;102238.19;4916312;28;97544;-56
2022/10/03 04:47:18;;;;;;;0.27;0.23;;;17.10;99.90;;;17.69;56.37;102244.88;4912364;28;101844;-56
2022/10/03 04:50:12;;;;;;;0.60;0.23;;;16.90;99.90;;;17.63;56.71;102234.38;4914911;28;101512;-55
2022/10/03 04:52:54;;;;;;;0.43;0.20;;;16.80;99.90;;;17.62;56.84;102238.00;4917541;28;97549;-54
2022/10/03 04:55:44;;;;;;;0.10;0.10;;;16.80;99.90;;;17.60;57.03;102238.06;4921301;28;97172;-53
2022/10/03 04:58:31;;;;;;;0.20;0.20;;;16.90;99.90;;;17.60;57.07;102239.84;4933341;28;101667;-54
2022/10/03 05:01:17;;;;;;;0.40;0.20;;;16.80;99.90;;;17.67;57.08;102230.69;4916899;28;98205;-50
2022/10/03 05:04:31;;;;;;;0.00;0.00;;;17.00;99.90;;;17.75;56.81;102232.13;4915155;28;97386;-53
2022/10/03 05:07:21;;;;;;;0.30;0.17;;;17.10;99.90;;;17.79;56.37;102235.53;4916722;28;98042;-53
2022/10/03 05:09:59;;;;;;;1.13;0.77;;;17.20;99.90;;;17.76;56.82;102235.66;4914631;28;98430;-53
2022/10/03 05:12:51;;;;;;;0.20;0.20;;;17.10;99.90;;;17.75;56.80;102231.25;4911691;28;103600;-54
2022/10/03 05:15:28;;;;;;;0.77;0.10;;;17.00;99.90;;;17.76;56.86;102241.00;4915156;28;97510;-56
2022/10/03 05:18:28;;;;;;;0.40;0.13;;;17.10;99.90;;;17.76;56.47;102241.00;4913902;28;98244;-54
2022/10/03 05:21:40;;;;;;;0.60;0.30;;;17.10;99.90;;;17.66;56.67;102237.81;4929474;28;101897;-52
2022/10/03 05:24:27;;;;;;;0.30;0.20;;;16.90;99.90;;;17.64;56.85;102246.81;4903515;28;99793;-55
2022/10/03 05:27:06;;;;;;;0.10;0.10;;;16.80;99.90;;;17.64;56.93;102246.81;4915974;28;97747;-54
2022/10/03 05:30:00;;;;;;;0.17;0.17;;;16.80;99.90;;;17.64;56.59;102246.81;4920942;28;97255;-56
2022/10/03 05:32:56;;;;;;;0.00;0.00;;;16.80;99.90;;;17.59;56.92;102254.13;4916146;28;104287;-49
2022/10/03 05:35:24;;;;;;;0.30;0.20;;;16.70;99.90;;;17.56;57.08;102257.78;4917487;28;101832;-51
2022/10/03 05:38:12;;;;;;;0.43;0.30;;;16.70;99.90;;;17.51;57.13;102258.00;4916869;28;97019;-51
2022/10/03 05:40:49;;;;;;;0.10;0.10;;;16.70;99.90;;;17.43;57.07;102265.41;4916778;28;98030;-51
2022/10/03 05:44:00;;;;;;;0.53;0.30;;;16.60;99.90;;;17.40;57.46;102254.88;4916809;28;98613;-48
2022/10/03 05:47:00;;;;;;;0.50;0.20;;;16.60;99.90;;;17.44;57.76;102256.47;4907279;28;101765;-47
2022/10/03 05:49:38;;;;;;;0.10;0.10;;;16.70;99.90;;;17.47;57.29;102261.69;4927308;28;97167;-54
2022/10/03 05:52:40;;;;;;;0.00;0.00;;;16.70;99.90;;;17.49;57.38;102269.63;4923374;28;97312;-53
2022/10/03 05:55:32;;;;;;;0.17;0.13;;;16.80;99.90;;;17.52;57.49;102270.41;4924032;28;101699;-54
2022/10/03 05:58:26;;;;;;;0.17;0.10;;;16.70;99.90;;;17.54;57.10;102268.53;4926737;28;98321;-55
2022/10/03 06:01:16;;;;;;;0.00;0.00;;;16.80;99.90;;;17.59;57.08;102270.13;4923946;28;98944;-53
2022/10/03 06:04:06;;;;;;;0.10;0.10;;;16.90;99.90;;;17.62;56.78;102280.69;4923138;28;97146;-52
2022/10/03 06:07:04;;;;;;;0.50;0.23;;;17.00;99.90;;;17.68;56.74;102285.81;4925889;28;97070;-49
2022/10/03 06:10:13;;;;;;;0.07;0.07;;;17.00;99.90;;;17.69;56.71;102282.22;4915478;28;102279;-52
2022/10/03 06:13:08;;;;;;;0.10;0.00;;;17.00;99.90;;;17.68;56.37;102291.13;4916779;28;97799;-52
2022/10/03 06:15:51;;;;;;;0.30;0.10;;;17.00;99.90;;;17.65;56.53;102292.13;4922359;28;97144;-51
2022/10/03 06:18:53;;;;;;;0.07;0.07;;;16.90;99.90;;;17.65;57.06;102288.56;4922448;28;103095;-50
2022/10/03 06:21:32;;;;;;;0.50;0.20;;;16.90;99.90;;;17.63;56.88;102287.75;4927504;28;99944;-53
2022/10/03 06:24:37;;;;;;;0.10;0.00;;;16.90;99.90;;;17.72;56.72;102284.78;4921282;28;100076;-51
2022/10/03 06:27:37;;;;;;;0.50;0.10;;;17.10;99.90;;;17.77;56.59;102291.66;4931901;28;97373;-49
2022/10/03 06:30:21;;;;;;;0.10;0.10;;;17.20;99.90;;;17.79;56.56;102288.91;4922250;28;101732;-50
2022/10/03 06:33:21;;;;;;;0.13;0.13;;;17.20;99.90;;;17.78;56.58;102292.53;4926020;28;97127;-51
2022/10/03 06:36:31;;;;;;;0.83;0.10;;;17.10;99.90;;;17.82;56.54;102294.16;4928959;28;97074;-49
2022/10/03 06:40:00;;;;;;;0.00;0.00;;;17.20;99.90;;;17.85;56.50;102299.38;4926977;28;97525;-51
2022/10/03 06:42:57;;;;;;;0.00;0.00;;;17.20;99.90;;;17.85;56.57;102299.38;4919780;28;100412;-49
2022/10/03 06:45:44;;;;;;;0.10;0.10;;;17.20;99.90;;;17.86;56.32;102301.09;4921869;28;99873;-49
2022/10/03 06:48:41;;;;;;;0.10;0.10;;;17.20;99.90;;;17.92;56.39;102306.19;4919655;28;97396;-50
2022/10/03 06:51:21;;;;;;;0.30;0.10;;;17.40;99.90;;;17.97;56.29;102301.56;4926302;28;96789;-51
2022/10/03 06:54:56;;;;;;;0.10;0.10;;;17.40;99.90;;;18.03;56.00;102298.63;4917058;28;97818;-52
2022/10/03 06:57:43;;;;;;;0.10;0.10;;;17.50;99.90;;;18.12;55.71;102308.94;4906680;28;101595;-48
2022/10/03 07:00:46;;;;;;;0.13;0.07;;;17.70;99.90;;;18.19;55.33;102304.19;4926172;28;97547;-50
2022/10/03 07:03:31;;;;;;;1.00;0.30;;;17.80;99.90;;;18.23;55.15;102312.97;4895729;28;98028;-52
2022/10/03 07:06:12;;;;;;;0.70;0.30;;;17.80;99.90;;;17.64;51.47;102301.03;4894613;28;97804;-49
2022/10/03 07:09:10;;;;;;;1.60;0.33;;;17.20;99.90;;;17.35;54.13;102307.50;4872764;28;99596;-51
2022/10/03 07:12:46;;;;;;;0.60;0.57;;;16.70;99.90;;;17.07;54.78;102309.44;4896984;28;98182;-50
2022/10/03 07:15:25;;;;;;;0.37;0.27;;;16.40;99.90;;;16.73;55.05;102310.69;4875444;28;98891;-48
2022/10/03 07:18:55;;;;;;;0.43;0.20;;;16.00;99.90;;;16.39;56.53;102305.63;4895504;28;97297;-49
2022/10/03 07:21:57;;;;;;;0.17;0.10;;;15.70;99.90;;;16.10;57.52;102314.56;4821669;28;101970;-49
2022/10/03 07:25:09;;;;;;;0.47;0.33;;;15.50;99.90;;;15.86;58.75;102321.53;4818171;28;99639;-53
2022/10/03 07:27:57;;;;;;;0.33;0.27;;;15.30;99.90;;;15.71;58.92;102322.00;4895852;28;97366;-55
2022/10/03 07:30:26;;;;;;;0.50;0.40;;;15.20;99.90;;;15.59;59.69;102328.56;4898077;28;102122;-51
2022/10/03 07:33:35;;;;;;;1.40;0.40;;;15.10;99.90;;;15.50;60.54;102334.16;4892472;28;97485;-55
2022/10/03 07:40:22;;;;;;;0.43;0.30;;;14.90;99.90;;;15.35;61.02;102331.94;4896172;28;100189;-52
2022/10/03 07:43:30;;;;;;;0.10;0.10;;;14.90;99.90;;;15.30;61.37;102339.16;4865605;28;102257;-53
2022/10/03 07:46:38;;;;;;;0.47;0.27;;;14.90;99.90;;;15.23;61.94;102334.97;4891937;28;97859;-49
2022/10/03 07:49:47;;;;;;;0.33;0.27;;;14.80;99.90;;;15.18;62.52;102343.91;4896380;28;97955;-57
2022/10/03 07:52:51;;;;;;;1.70;0.30;;;14.70;99.90;;;15.14;62.68;102347.56;4893761;28;98096;-55
2022/10/03 07:55:50;;;;;;;0.83;0.30;;;14.80;99.90;;;15.09;62.13;102353.94;4897054;28;100665;-57
2022/10/03 07:58:38;;;;;;;0.73;0.63;;;14.70;99.90;;;15.05;62.63;102353.16;4885134;28;104658;-55
2022/10/03 08:01:28;;;;;;;0.17;0.17;;;14.70;99.90;;;15.15;63.57;102357.28;4896605;28;99173;-56
2022/10/03 08:04:25;;;;;;;4.47;0.30;;;14.70;99.90;;;15.27;63.50;102349.91;4882507;28;98340;-53
2022/10/03 08:07:32;;;;;;;0.30;0.27;;;14.80;99.90;;;15.44;63.40;102352.94;4890512;28;102063;-54
2022/10/03 08:10:30;;;;;;;0.83;0.57;;;14.90;99.90;;;15.54;63.48;102351.75;4886154;28;98725;-55
2022/10/03 08:13:09;;;;;;;0.67;0.67;;;15.00;99.90;;;15.64;62.62;102358.59;4889412;28;97899;-53
2022/10/03 08:16:16;;;;;;;0.90;0.70;;;15.10;99.90;;;15.94;62.90;102358.56;4887763;28;100366;-56
2022/10/03 08:19:27;;;;;;;0.27;0.20;;;15.30;99.90;;;16.11;61.32;102364.22;4886253;28;103692;-56
2022/10/03 08:22:36;;;;;;;0.97;0.30;;;15.60;99.90;;;16.06;60.95;102360.84;4887899;28;97319;-56
2022/10/03 08:25:28;;;;;;;0.77;0.23;;;15.60;99.90;;;16.32;60.95;102365.31;4887058;28;98911;-57
2022/10/03 08:28:15;;;;;;;0.80;0.50;;;15.80;99.90;;;16.33;59.92;102375.03;4890601;28;100127;-54
2022/10/03 08:31:03;;;;;;;1.13;0.43;;;15.80;99.90;;;16.33;60.06;102375.91;4892757;28;99767;-53
2022/10/03 08:33:55;;;;;;;0.83;0.40;;;15.80;99.90;;;16.30;60.73;102364.50;4887741;28;98839;-54
2022/10/03 08:36:44;;;;;;;0.77;0.33;;;15.80;99.90;;;16.45;60.27;102374.66;4890598;28;98432;-55
2022/10/03 08:39:12;;;;;;;0.87;0.40;;;15.90;99.90;;;16.41;60.13;102377.47;4877035;28;99702;-54
2022/10/03 08:41:59;;;;;;;1.27;0.87;;;15.90;99.90;;;16.47;61.01;102371.94;4885010;28;98851;-53
2022/10/03 08:44:59;;;;;;;2.37;1.17;;;15.90;99.90;;;16.39;59.99;102374.88;4886686;28;100236;-55
2022/10/03 08:48:01;;;;;;;1.07;0.83;;;16.00;99.90;;;16.45;60.72;102369.31;4886749;28;99160;-57
2022/10/03 08:51:03;;;;;;;1.03;0.40;;;16.00;99.90;;;16.47;60.69;102377.25;4885675;28;101880;-55
2022/10/03 08:54:04;;;;;;;2.77;0.70;;;16.00;99.90;;;16.57;60.31;102368.03;4889273;28;105011;-56
2022/10/03 08:56:50;;;;;;;4.03;0.70;;;16.10;99.90;;;16.64;59.38;102370.47;4883169;28;100494;-55
2022/10/03 09:00:04;;;;;;;3.03;0.57;;;16.20;99.90;;;16.84;59.57;102361.81;4862946;28;100114;-57
2022/10/03 09:02:42;;;;;;;0.83;0.37;;;16.30;99.90;;;16.94;59.65;102367.69;4873213;28;101412;-55
2022/10/03 09:05:22;;;;;;;0.70;0.70;;;16.40;99.90;;;17.13;58.86;102363.44;4874193;28;101159;-58
2022/10/03 09:08:21;;;;;;;2.17;0.57;;;16.70;99.90;;;17.18;58.55;102371.25;4875715;28;101204;-56
2022/10/03 09:11:40;;;;;;;1.57;0.57;;;16.70;99.90;;;17.09;58.21;102360.94;4873258;28;97241;-56
2022/10/03 09:14:31;;;;;;;0.80;0.50;;;16.60;99.90;;;17.15;58.55;102366.91;4874883;28;101590;-55
2022/10/03 09:17:34;;;;;;;0.17;0.13;;;16.60;99.90;;;17.35;58.21;102370.66;4865608;28;99985;-57
2022/10/03 09:20:24;;;;;;;0.70;0.63;;;16.90;99.90;;;17.29;57.79;102363.75;4867635;28;101407;-57
2022/10/03 09:23:24;;;;;;;1.27;0.80;;;16.90;99.90;;;17.32;57.94;102368.09;4864453;28;97404;-57
2022/10/03 09:27:00;;;;;;;0.83;0.50;;;16.90;99.90;;;17.35;58.18;102362.63;4862376;28;100701;-56
2022/10/03 09:30:13;;;;;;;1.03;0.70;;;16.80;99.90;;;17.59;57.37;102369.72;4805295;28;103728;-58
2022/10/03 09:33:16;;;;;;;0.40;0.37;;;17.20;99.90;;;17.44;57.53;102373.84;4855071;28;102974;-57
2022/10/03 09:36:06;;;;;;;0.80;0.50;;;17.20;99.90;;;17.56;57.59;102367.19;4878906;28;99166;-55
2022/10/03 09:39:26;;;;;;;0.30;0.30;;;17.20;99.90;;;17.70;57.23;102358.69;4880188;28;97932;-54
2022/10/03 09:42:16;;;;;;;0.10;0.10;;;17.30;99.90;;;17.79;56.74;102364.56;4871549;28;102764;-56
2022/10/03 09:45:07;;;;;;;0.40;0.30;;;17.40;99.90;;;17.87;56.42;102369.56;4876749;28;98749;-55
2022/10/03 09:48:08;;;;;;;2.00;0.57;;;17.60;99.90;;;17.87;56.45;102356.22;4891813;28;101182;-56
2022/10/03 09:51:01;;;;;;;0.70;0.40;;;17.50;99.90;;;17.91;56.50;102363.19;4885748;28;97788;-57
2022/10/03 09:54:33;;;;;;;1.23;0.60;;;17.50;99.90;;;17.82;56.12;102358.22;4893466;28;101687;-54
2022/10/03 09:57:23;;;;;;;0.37;0.20;;;17.40;99.90;;;17.86;56.88;102343.81;4868297;28;101348;-50
2022/10/03 10:00:15;;;;;;;0.63;0.50;;;17.40;99.90;;;17.93;56.65;102345.28;4885605;28;98287;-55
2022/10/03 10:03:20;;;;;;;0.50;0.27;;;17.50;99.90;;;17.99;56.47;102344.19;4882686;28;98978;-56
2022/10/03 10:05:57;;;;;;;0.60;0.30;;;17.70;99.90;;;18.01;56.61;102337.88;4883343;28;103117;-55
2022/10/03 10:08:37;;;;;;;3.13;0.43;;;17.70;99.90;;;18.12;56.31;102340.97;4892423;28;100140;-54
2022/10/03 10:11:34;;;;;;;0.83;0.40;;;17.80;99.90;;;18.21;55.99;102336.19;4890863;28;97794;-53
2022/10/03 10:14:06;;;;;;;0.73;0.53;;;17.90;99.90;;;18.39;55.18;102338.97;4881069;28;99532;-56
2022/10/03 10:17:09;;;;;;;0.27;0.27;;;18.20;99.90;;;18.59;54.61;102358.63;4880220;28;98724;-55
2022/10/03 10:20:06;;;;;;;0.60;0.53;;;18.40;99.90;;;18.66;55.65;102353.00;4887985;28;100776;-57
2022/10/03 10:23:04;;;;;;;0.83;0.63;;;18.60;99.90;;;18.70;54.52;102351.06;4887421;28;100949;-57
2022/10/03 10:26:08;;;;;;;0.40;0.40;;;18.60;99.90;;;18.65;54.73;102345.91;4874152;28;99561;-56
2022/10/03 10:29:08;;;;;;;0.50;0.50;;;18.60;99.90;;;18.79;54.05;102341.75;4887734;28;105614;-54
2022/10/03 10:32:30;;;;;;;0.70;0.40;;;18.70;99.90;;;18.73;53.29;102338.44;4883212;28;100997;-57
2022/10/03 10:35:17;;;;;;;0.20;0.10;;;18.70;99.90;;;18.81;53.97;102331.91;4857724;28;99369;-56
2022/10/03 10:38:03;;;;;;;1.70;0.60;;;18.60;99.90;;;18.75;53.66;102327.66;4902901;28;100440;-54
2022/10/03 10:41:16;;;;;;;0.40;0.40;;;18.70;99.90;;;18.73;54.27;102333.09;4922828;28;99517;-54
2022/10/03 10:44:34;;;;;;;1.33;0.57;;;18.50;99.90;;;18.69;52.93;102330.63;4845579;28;101770;-55
2022/10/03 10:48:05;;;;;;;0.17;0.13;;;18.50;99.90;;;18.72;53.94;102326.00;4850101;28;97651;-53
2022/10/03 10:51:29;;;;;;;0.73;0.10;;;18.50;99.90;;;18.81;54.02;102330.09;4881534;28;98099;-54
2022/10/03 10:54:22;;;;;;;0.20;0.17;;;18.60;99.90;;;18.94;53.60;102319.69;4905262;28;104515;-56
2022/10/03 10:57:39;;;;;;;0.50;0.40;;;18.90;99.90;;;19.08;53.24;102321.75;4912553;28;98270;-53
2022/10/03 11:01:13;;;;;;;0.20;0.20;;;19.00;99.90;;;19.14;53.06;102327.72;4904138;28;97319;-53
2022/10/03 11:04:18;;;;;;;0.47;0.20;;;19.10;99.90;;;19.16;52.91;102320.47;4899119;28;99054;-54
2022/10/03 11:07:36;;;;;;;0.60;0.40;;;19.10;99.90;;;19.19;51.53;102309.63;4908682;28;98747;-56
2022/10/03 11:10:31;;;;;;;0.20;0.20;;;19.20;99.90;;;19.24;52.74;102315.66;4921222;28;101920;-56
2022/10/03 11:13:51;;;;;;;0.03;0.03;;;19.20;99.90;;;19.29;52.31;102320.81;4920852;28;97354;-55
2022/10/03 11:17:05;;;;;;;0.13;0.10;;;19.30;99.90;;;19.28;50.50;102311.03;4942162;28;97380;-51
2022/10/03 11:20:02;;;;;;;0.60;0.20;;;19.30;99.90;;;19.12;51.70;102318.91;4880796;28;101591;-55
2022/10/03 11:23:01;;;;;;;0.30;0.30;;;19.10;99.90;;;19.02;52.90;102315.75;4878380;28;102905;-56
2022/10/03 11:25:54;;;;;;;0.20;0.20;;;18.90;99.90;;;19.01;53.10;102315.81;4877812;28;98149;-56
2022/10/03 11:29:00;;;;;;;0.70;0.10;;;18.80;99.90;;;19.01;52.85;102315.81;4878022;28;99087;-56
2022/10/03 11:31:43;;;;;;;0.10;0.10;;;18.80;99.90;;;18.93;52.20;102317.97;4879199;28;102805;-55
2022/10/03 11:34:47;;;;;;;0.17;0.17;;;18.70;99.90;;;18.88;52.34;102312.81;4888253;28;99977;-56
2022/10/03 11:37:41;;;;;;;0.60;0.10;;;18.70;99.90;;;18.98;53.43;102310.63;4885244;28;99502;-57
2022/10/03 11:40:43;;;;;;;0.17;0.13;;;18.80;99.90;;;18.94;50.56;102300.97;4887669;28;98836;-55
2022/10/03 11:43:47;;;;;;;0.00;0.00;;;18.90;99.90;;;18.89;50.19;102305.66;4886306;28;104306;-51
2022/10/03 11:46:19;;;;;;;0.00;0.00;;;18.80;99.90;;;18.90;49.99;102302.06;4886975;28;102712;-56
2022/10/03 11:49:08;;;;;;;1.07;0.20;;;18.80;99.90;;;18.91;52.41;102301.13;4887751;28;102128;-55
2022/10/03 11:52:30;;;;;;;0.40;0.30;;;18.70;99.90;;;19.00;53.09;102290.91;4883661;28;99801;-53
2022/10/03 11:55:28;;;;;;;0.10;0.10;;;18.80;99.90;;;19.08;52.51;102285.19;4868510;28;103352;-55
2022/10/03 11:58:32;;;;;;;0.10;0.10;;;19.00;99.90;;;19.08;48.80;102295.88;4888523;28;98480;-57
2022/10/03 12:01:27;;;;;;;0.00;0.00;;;19.10;99.90;;;19.11;51.67;102287.75;4873848;28;97735;-55
2022/10/03 12:04:27;;;;;;;0.13;0.10;;;19.00;99.90;;;19.14;52.22;102290.28;4883392;28;99935;-53
2022/10/03 12:10:20;;;;;;;1.30;0.10;;;19.00;99.90;;;19.17;52.06;102284.78;4874208;28;101641;-54
2022/10/03 12:12:52;;;;;;;0.03;0.00;;;19.10;99.90;;;19.11;48.10;102277.03;4875008;28;97554;-57
2022/10/03 12:15:37;;;;;;;0.00;0.00;;;19.20;99.90;;;19.16;49.84;102282.16;4887557;28;98547;-51
2022/10/03 12:18:17;;;;;;;0.00;0.00;;;19.10;99.90;;;19.14;49.32;102281.38;4884882;28;103122;-56